Terminal Aerodrome Forecast
Issued by NWS Goodland, KS

Home | Current Version | Previous Version | Text Only | Print | Product List | Glossary On
Versions: 1 2 3 4 5 6 7 8 9 10 11 12 13 14
000
FTUS43 KGLD 222320
TAFGLD
TAF
KGLD 222320Z 2300/2324 18020G30KT P6SM VCSH SCT040 BKN100
      TEMPO 2300/2302 -SHRA BKN040
     FM230500 17009KT P6SM SCT100
     FM231000 VRB05KT 6SM BR SCT005 BKN010
     FM231400 VRB06KT P6SM FEW250
     FM231800 30009KT P6SM FEW100=

USA.gov is the U.S. government's official web portal to all federal, state and local government web resources and services.